createdAt,value
2023-05-20T00:00:02.359Z,74.1
2023-05-20T00:15:02.975Z,75.2
2023-05-20T00:30:02.233Z,76.0
2023-05-20T00:45:02.661Z,77.0
2023-05-20T01:00:03.117Z,77.7
2023-05-20T01:15:02.572Z,78.4
2023-05-20T01:30:03.069Z,78.9
2023-05-20T01:45:02.418Z,79.6
2023-05-20T02:00:03.060Z,80.2
2023-05-20T02:15:02.299Z,81.2
2023-05-20T02:30:02.724Z,81.7
2023-05-20T02:45:03.156Z,82.3
2023-05-20T03:00:02.591Z,82.4
2023-05-20T03:15:03.077Z,82.4
2023-05-20T03:30:02.481Z,82.5
2023-05-20T03:45:03.081Z,82.4
2023-05-20T04:00:02.375Z,81.8
2023-05-20T04:15:02.812Z,81.1
2023-05-20T04:30:02.230Z,79.7
2023-05-20T04:45:02.669Z,76.9
2023-05-20T05:00:03.128Z,74.5
2023-05-20T05:15:02.562Z,72.9
2023-05-20T05:30:03.131Z,72.4
2023-05-20T05:45:02.419Z,71.0
2023-05-20T06:00:03.028Z,70.0
2023-05-20T06:15:02.274Z,69.4
2023-05-20T06:30:02.731Z,69.0
2023-05-20T06:45:03.188Z,65.7
2023-05-20T07:00:02.636Z,58.4
2023-05-20T07:15:03.110Z,54.2
2023-05-20T07:30:02.483Z,55.0
2023-05-20T07:45:03.108Z,53.6
2023-05-20T08:00:02.353Z,50.0
2023-05-20T08:15:02.891Z,52.5
2023-05-20T08:30:02.226Z,50.0
2023-05-20T08:45:02.740Z,53.2
2023-05-20T09:00:03.165Z,48.6
2023-05-20T09:15:02.595Z,47.9
2023-05-20T09:30:03.135Z,49.0
2023-05-20T09:45:02.453Z,46.9
2023-05-20T10:00:02.901Z,44.3
2023-05-20T10:15:02.317Z,42.1
2023-05-20T10:30:02.804Z,43.0
2023-05-20T10:45:02.231Z,42.5
2023-05-20T11:00:02.649Z,45.3
2023-05-20T11:15:03.166Z,45.7
2023-05-20T11:30:02.533Z,43.9
2023-05-20T11:45:03.167Z,45.1
2023-05-20T12:00:02.413Z,44.0
2023-05-20T12:15:02.873Z,49.3
2023-05-20T12:30:02.311Z,50.7
2023-05-20T12:45:02.700Z,53.2
2023-05-20T13:00:02.173Z,53.6
2023-05-20T13:15:02.588Z,50.3
2023-05-20T13:30:03.184Z,52.7
2023-05-20T13:45:02.454Z,51.7
2023-05-20T14:00:02.919Z,51.3
2023-05-20T14:15:03.358Z,51.6
2023-05-20T14:30:02.788Z,50.6
2023-05-20T14:45:03.226Z,51.4
2023-05-20T15:00:02.680Z,51.3
2023-05-20T15:15:03.201Z,55.0
2023-05-20T15:30:02.608Z,56.4
2023-05-20T15:45:03.219Z,55.2
2023-05-20T16:00:02.556Z,57.5
2023-05-20T16:15:02.879Z,58.8
2023-05-20T16:30:02.284Z,59.1
2023-05-20T16:45:02.733Z,61.4
2023-05-20T17:00:03.207Z,61.8
2023-05-20T17:15:02.657Z,62.7
2023-05-20T17:30:03.225Z,63.9
2023-05-20T17:45:02.476Z,64.7
2023-05-20T18:00:02.919Z,65.2
2023-05-20T18:15:02.359Z,65.7
2023-05-20T18:30:02.811Z,66.7
2023-05-20T18:45:02.240Z,67.8
2023-05-20T19:00:02.670Z,68.3
2023-05-20T19:15:03.228Z,68.9
2023-05-20T19:30:02.569Z,69.8
2023-05-20T19:45:03.218Z,70.4
2023-05-20T20:00:02.451Z,70.9
2023-05-20T20:15:02.892Z,71.4
2023-05-20T20:30:02.323Z,72.0
2023-05-20T20:45:02.724Z,72.4
2023-05-20T21:00:03.235Z,72.7
2023-05-20T21:15:02.615Z,72.7
2023-05-20T21:30:03.255Z,72.9
2023-05-20T21:45:02.492Z,73.1
2023-05-20T22:00:02.916Z,73.5
2023-05-20T22:15:02.351Z,74.0
2023-05-20T22:30:02.795Z,74.7
2023-05-20T22:45:03.279Z,75.7
2023-05-20T23:00:02.707Z,76.7
2023-05-20T23:15:03.270Z,77.9
2023-05-20T23:30:02.591Z,79.1
2023-05-20T23:45:03.025Z,80.1
